createdAt,value
2019-04-25T00:00:07.702Z,11.20
2019-04-25T00:01:07.724Z,11.60
2019-04-25T00:02:07.744Z,11.40
2019-04-25T00:03:07.769Z,11.00
2019-04-25T00:04:07.785Z,11.80
2019-04-25T00:05:07.823Z,11.30
2019-04-25T00:06:07.896Z,11.40
2019-04-25T00:07:07.892Z,11.30
2019-04-25T00:08:07.901Z,11.20
2019-04-25T00:09:07.952Z,11.30
2019-04-25T00:10:07.946Z,11.20
2019-04-25T00:11:07.954Z,11.40
2019-04-25T00:12:07.955Z,11.50
2019-04-25T00:13:07.976Z,11.20
2019-04-25T00:14:07.993Z,10.90
2019-04-25T00:15:08.014Z,11.40
2019-04-25T00:16:08.036Z,11.30
2019-04-25T00:17:08.058Z,12.30
2019-04-25T00:18:08.075Z,12.30
2019-04-25T00:19:08.097Z,11.40
2019-04-25T00:20:08.128Z,12.60
2019-04-25T00:21:08.138Z,12.40
2019-04-25T00:22:08.159Z,12.60
2019-04-25T00:23:08.181Z,13.00
2019-04-25T00:24:08.200Z,12.50
2019-04-25T00:25:15.900Z,13.20
2019-04-25T00:26:08.242Z,14.20
2019-04-25T00:27:08.264Z,14.60
2019-04-25T00:28:08.282Z,14.90
2019-04-25T00:29:08.306Z,15.30
2019-04-25T00:30:08.322Z,15.00
2019-04-25T00:31:08.344Z,15.20
2019-04-25T00:32:08.367Z,15.60
2019-04-25T00:33:08.386Z,14.70
2019-04-25T00:34:08.406Z,16.20
2019-04-25T00:35:08.426Z,17.00
2019-04-25T00:36:08.445Z,17.30
2019-04-25T00:37:08.467Z,17.10
2019-04-25T00:38:08.487Z,17.20
2019-04-25T00:39:08.508Z,16.70
2019-04-25T00:40:08.527Z,17.30
2019-04-25T00:41:08.547Z,16.80
2019-04-25T00:42:08.566Z,17.70
2019-04-25T00:43:08.590Z,17.40
2019-04-25T00:44:08.607Z,17.80
2019-04-25T00:45:08.632Z,16.90
2019-04-25T00:46:08.650Z,18.40
2019-04-25T00:47:08.669Z,17.80
2019-04-25T00:48:08.686Z,17.50
2019-04-25T00:49:08.710Z,17.60
2019-04-25T00:50:08.732Z,18.10
2019-04-25T00:51:08.750Z,17.70
2019-04-25T00:52:08.769Z,18.80
2019-04-25T00:53:08.790Z,17.80
2019-04-25T00:54:08.810Z,18.60
2019-04-25T00:55:08.829Z,18.90
2019-04-25T00:56:08.850Z,18.60
2019-04-25T00:57:08.873Z,18.70
2019-04-25T00:58:08.890Z,18.10
2019-04-25T00:59:08.911Z,18.90
2019-04-25T01:00:08.931Z,19.60
2019-04-25T01:01:08.951Z,18.80
2019-04-25T01:02:08.971Z,18.50
2019-04-25T01:03:08.989Z,18.30
2019-04-25T01:04:09.011Z,18.90
2019-04-25T01:05:09.030Z,17.60
2019-04-25T01:06:09.052Z,17.60
2019-04-25T01:07:09.071Z,18.10
2019-04-25T01:08:09.090Z,18.00
2019-04-25T01:09:09.109Z,17.90
2019-04-25T01:10:09.131Z,18.70
2019-04-25T01:11:09.149Z,18.30
2019-04-25T01:12:09.170Z,17.90
2019-04-25T01:13:09.191Z,19.10
2019-04-25T01:14:09.210Z,18.20
2019-04-25T01:15:09.231Z,18.70
2019-04-25T01:16:09.250Z,17.60
2019-04-25T01:17:09.270Z,17.20
2019-04-25T01:18:09.290Z,18.70
2019-04-25T01:19:09.310Z,18.30
2019-04-25T01:20:09.330Z,18.20
2019-04-25T01:21:09.351Z,17.90
2019-04-25T01:22:09.371Z,17.60
2019-04-25T01:23:09.392Z,16.90
2019-04-25T01:24:09.411Z,18.30
2019-04-25T01:25:09.429Z,18.80
2019-04-25T01:26:09.450Z,18.10
2019-04-25T01:27:09.470Z,17.30
2019-04-25T01:28:09.492Z,17.60
2019-04-25T01:29:09.508Z,17.30
2019-04-25T01:30:09.526Z,17.40
2019-04-25T01:31:09.552Z,17.80
2019-04-25T01:32:09.567Z,17.10
2019-04-25T01:33:09.587Z,17.40
2019-04-25T01:34:09.606Z,17.30
2019-04-25T01:35:09.627Z,17.40
2019-04-25T01:36:09.648Z,17.30
2019-04-25T01:37:09.673Z,16.90
2019-04-25T01:38:09.691Z,16.90
2019-04-25T01:39:09.771Z,16.80
2019-04-25T01:40:09.777Z,18.00
2019-04-25T01:41:09.781Z,17.10
2019-04-25T01:42:09.840Z,16.30
2019-04-25T01:43:09.852Z,17.60
2019-04-25T01:44:09.830Z,17.60
2019-04-25T01:45:09.829Z,18.00
2019-04-25T01:46:09.843Z,17.30
2019-04-25T01:47:09.865Z,17.50
2019-04-25T01:48:09.884Z,17.50
2019-04-25T01:49:09.902Z,18.60
2019-04-25T01:50:09.924Z,17.70
2019-04-25T01:51:09.947Z,18.10
2019-04-25T01:52:09.964Z,18.00
2019-04-25T01:53:09.982Z,17.60
2019-04-25T01:54:10.003Z,17.80
2019-04-25T01:55:10.022Z,17.40
2019-04-25T01:56:10.060Z,16.80
2019-04-25T01:57:10.062Z,17.80
2019-04-25T01:58:10.080Z,16.90
2019-04-25T01:59:10.100Z,17.70
2019-04-25T02:00:10.120Z,18.30
2019-04-25T02:01:10.145Z,18.40
2019-04-25T02:02:10.182Z,17.30
2019-04-25T02:03:10.180Z,17.00
2019-04-25T02:04:10.200Z,17.30
2019-04-25T02:05:10.223Z,18.60
2019-04-25T02:06:10.241Z,16.30
2019-04-25T02:07:10.262Z,18.00
2019-04-25T02:08:10.281Z,17.80
2019-04-25T02:09:10.301Z,17.80
2019-04-25T02:10:10.324Z,18.10
2019-04-25T02:11:10.341Z,18.10
2019-04-25T02:12:10.364Z,17.80
2019-04-25T02:13:10.380Z,18.80
2019-04-25T02:14:10.404Z,18.60
2019-04-25T02:15:10.422Z,18.60
2019-04-25T02:16:10.439Z,18.10
2019-04-25T02:17:10.461Z,17.20
2019-04-25T02:18:10.480Z,17.30
2019-04-25T02:19:10.501Z,17.50
2019-04-25T02:20:10.520Z,17.60
2019-04-25T02:21:10.540Z,18.30
2019-04-25T02:22:10.561Z,19.00
2019-04-25T02:23:10.579Z,18.50
2019-04-25T02:24:10.600Z,18.50
2019-04-25T02:25:10.621Z,18.20
2019-04-25T02:26:16.023Z,17.90
2019-04-25T02:27:10.660Z,18.30
2019-04-25T02:28:10.682Z,18.30
2019-04-25T02:29:10.701Z,17.60
2019-04-25T02:30:10.723Z,16.90
2019-04-25T02:31:10.740Z,18.20
2019-04-25T02:32:10.760Z,18.30
2019-04-25T02:33:10.782Z,18.40
2019-04-25T02:34:10.803Z,17.40
2019-04-25T02:35:10.837Z,18.60
2019-04-25T02:36:10.841Z,18.30
2019-04-25T02:37:10.886Z,19.70
2019-04-25T02:38:10.882Z,18.20
2019-04-25T02:39:10.902Z,18.60
2019-04-25T02:40:10.921Z,18.70
2019-04-25T02:41:10.941Z,18.10
2019-04-25T02:42:10.963Z,18.00
2019-04-25T02:43:10.980Z,17.20
2019-04-25T02:44:11.001Z,18.00
2019-04-25T02:45:11.021Z,18.30
2019-04-25T02:46:11.041Z,18.20
2019-04-25T02:47:11.058Z,18.00
2019-04-25T02:48:11.082Z,18.10
2019-04-25T02:49:19.734Z,19.20
2019-04-25T02:50:11.119Z,19.20
2019-04-25T02:51:11.139Z,18.50
2019-04-25T02:52:13.146Z,18.60
2019-04-25T02:53:11.180Z,18.10
2019-04-25T02:54:11.201Z,18.30
2019-04-25T02:55:15.999Z,18.30
2019-04-25T02:56:27.377Z,18.20
2019-04-25T02:57:11.259Z,19.10
2019-04-25T02:58:11.280Z,17.90
2019-04-25T02:59:11.307Z,18.00
2019-04-25T03:00:11.316Z,17.40
2019-04-25T03:01:19.389Z,17.40
2019-04-25T03:02:11.359Z,17.40
2019-04-25T03:03:11.395Z,17.60
2019-04-25T03:04:11.533Z,17.20
2019-04-25T03:05:11.453Z,18.30
2019-04-25T03:06:11.442Z,17.40
2019-04-25T03:07:11.623Z,17.20
2019-04-25T03:08:11.502Z,16.70
2019-04-25T03:09:11.500Z,17.00
2019-04-25T03:10:11.604Z,16.20
2019-04-25T03:11:11.557Z,16.00
2019-04-25T03:12:25.391Z,16.80
2019-04-25T03:13:12.563Z,16.10
2019-04-25T03:14:11.656Z,16.40
2019-04-25T03:15:11.661Z,15.80
2019-04-25T03:16:13.757Z,15.50
2019-04-25T03:17:14.003Z,15.40
2019-04-25T03:18:14.572Z,15.70
2019-04-25T03:19:13.974Z,15.20
2019-04-25T03:20:12.672Z,14.30
2019-04-25T03:21:14.155Z,14.60
2019-04-25T03:22:11.932Z,14.80
2019-04-25T03:23:14.218Z,14.60
2019-04-25T03:24:13.937Z,13.70
2019-04-25T03:25:16.475Z,13.70
2019-04-25T03:26:13.389Z,13.50
2019-04-25T03:27:11.858Z,13.20
2019-04-25T03:28:13.483Z,13.10
2019-04-25T03:29:13.530Z,12.90
2019-04-25T03:30:14.074Z,13.90
2019-04-25T03:31:18.630Z,13.30
2019-04-25T03:32:14.314Z,12.90
2019-04-25T03:33:16.113Z,13.20
2019-04-25T03:34:16.063Z,13.50
2019-04-25T03:35:13.378Z,13.40
2019-04-25T03:36:13.699Z,13.40
2019-04-25T03:37:13.626Z,13.20
2019-04-25T03:38:12.724Z,13.70
2019-04-25T03:39:14.404Z,14.30
2019-04-25T03:40:13.840Z,13.40
2019-04-25T03:41:13.205Z,14.00
2019-04-25T03:42:12.152Z,14.20
2019-04-25T03:43:12.177Z,14.20
2019-04-25T03:44:13.840Z,14.20
2019-04-25T03:45:13.764Z,14.20
2019-04-25T03:46:14.117Z,13.80
2019-04-25T03:47:13.444Z,13.30
2019-04-25T03:48:13.882Z,14.20
2019-04-25T03:49:13.526Z,13.20
2019-04-25T03:50:13.829Z,13.80
2019-04-25T03:51:14.227Z,13.50
2019-04-25T03:52:14.086Z,13.50
2019-04-25T03:53:13.618Z,13.40
2019-04-25T03:54:14.097Z,13.50
2019-04-25T03:55:12.464Z,12.60
2019-04-25T03:56:12.966Z,13.10
2019-04-25T03:57:14.475Z,12.90
2019-04-25T03:58:13.117Z,12.60
2019-04-25T03:59:14.225Z,12.80
2019-04-25T04:00:14.505Z,13.60
2019-04-25T04:01:13.245Z,13.30
2019-04-25T04:02:13.533Z,12.60
2019-04-25T04:03:14.233Z,12.70
2019-04-25T04:04:14.368Z,12.90
2019-04-25T04:05:13.900Z,12.30
2019-04-25T04:06:14.194Z,12.40
2019-04-25T04:07:14.303Z,11.40
2019-04-25T04:08:14.479Z,11.90
2019-04-25T04:09:13.917Z,12.00
2019-04-25T04:10:14.214Z,10.90
2019-04-25T04:11:14.159Z,11.20
2019-04-25T04:12:14.482Z,10.20
2019-04-25T04:13:14.191Z,9.00
2019-04-25T04:14:14.499Z,9.00
2019-04-25T04:15:14.396Z,8.80
2019-04-25T04:16:14.295Z,8.60
2019-04-25T04:17:14.432Z,8.20
2019-04-25T04:18:16.282Z,7.90
2019-04-25T04:19:14.419Z,7.10
2019-04-25T04:20:14.705Z,7.10
2019-04-25T04:21:13.583Z,6.80
2019-04-25T04:22:15.023Z,6.00
2019-04-25T04:23:13.498Z,5.30
2019-04-25T04:24:14.124Z,4.90
2019-04-25T04:25:13.876Z,5.20
2019-04-25T04:26:13.673Z,4.90
2019-04-25T04:27:14.490Z,5.30
2019-04-25T04:28:14.072Z,5.10
2019-04-25T04:29:14.121Z,4.80
2019-04-25T04:30:14.476Z,4.70
2019-04-25T04:31:14.340Z,4.30
2019-04-25T04:32:14.386Z,4.40
2019-04-25T04:33:25.991Z,3.90
2019-04-25T04:34:14.689Z,3.90
2019-04-25T04:35:14.444Z,4.20
2019-04-25T04:36:15.032Z,3.80
2019-04-25T04:37:14.629Z,3.80
2019-04-25T04:38:14.425Z,3.30
2019-04-25T04:39:14.206Z,3.60
2019-04-25T04:40:15.824Z,3.10
2019-04-25T04:41:14.230Z,3.60
2019-04-25T04:42:13.990Z,3.70
2019-04-25T04:43:15.283Z,3.60
2019-04-25T04:44:14.327Z,3.60
2019-04-25T04:45:14.317Z,4.00
2019-04-25T04:46:14.168Z,3.70
2019-04-25T04:47:14.420Z,3.40
2019-04-25T04:48:14.511Z,3.20
2019-04-25T04:49:14.456Z,3.60
2019-04-25T04:50:14.498Z,3.30
2019-04-25T04:51:14.875Z,3.40
2019-04-25T04:52:14.700Z,3.50
2019-04-25T04:53:15.716Z,3.40
2019-04-25T04:54:14.366Z,3.40
2019-04-25T04:55:15.761Z,3.40
2019-04-25T04:56:15.056Z,3.00
2019-04-25T04:57:22.105Z,3.70
2019-04-25T04:58:15.038Z,3.70
2019-04-25T04:59:14.640Z,3.20
2019-04-25T05:00:14.590Z,3.20
2019-04-25T05:01:14.777Z,3.30
2019-04-25T05:02:15.789Z,3.20
2019-04-25T05:03:14.889Z,3.00
2019-04-25T05:04:14.937Z,3.10
2019-04-25T05:05:14.565Z,3.50
2019-04-25T05:06:15.012Z,3.50
2019-04-25T05:07:14.973Z,3.50
2019-04-25T05:08:14.991Z,3.50
2019-04-25T05:09:15.200Z,3.20
2019-04-25T05:10:16.522Z,3.80
2019-04-25T05:11:15.441Z,3.30
2019-04-25T05:12:15.251Z,3.50
2019-04-25T05:13:15.248Z,3.30
2019-04-25T05:14:14.905Z,3.60
2019-04-25T05:15:15.322Z,3.40
2019-04-25T05:16:15.066Z,3.30
2019-04-25T05:17:15.166Z,3.30
2019-04-25T05:18:15.624Z,3.40
2019-04-25T05:19:15.477Z,3.60
2019-04-25T05:20:16.015Z,3.90
2019-04-25T05:21:15.694Z,4.00
2019-04-25T05:22:14.919Z,4.30
2019-04-25T05:23:15.086Z,4.20
2019-04-25T05:24:16.008Z,4.10
2019-04-25T05:25:16.260Z,3.90
2019-04-25T05:26:15.929Z,4.00
2019-04-25T05:27:15.380Z,3.80
2019-04-25T05:28:16.170Z,3.60
2019-04-25T05:29:17.478Z,3.90
2019-04-25T05:30:15.716Z,3.80
2019-04-25T05:31:15.749Z,3.70
2019-04-25T05:32:15.776Z,3.50
2019-04-25T05:33:17.591Z,3.50
2019-04-25T05:34:15.722Z,3.70
2019-04-25T05:35:15.016Z,3.50
2019-04-25T05:36:15.488Z,3.30
2019-04-25T05:37:15.151Z,3.20
2019-04-25T05:38:15.096Z,3.20
2019-04-25T05:39:16.711Z,3.00
2019-04-25T05:40:15.816Z,2.90
2019-04-25T05:41:15.654Z,2.70
2019-04-25T05:42:16.277Z,2.60
2019-04-25T05:43:15.085Z,2.60
2019-04-25T05:44:15.705Z,2.40
2019-04-25T05:45:16.030Z,2.20
2019-04-25T05:46:15.293Z,2.30
2019-04-25T05:47:15.898Z,2.10
2019-04-25T05:48:15.964Z,1.60
2019-04-25T05:49:15.492Z,2.10
2019-04-25T05:50:15.639Z,1.90
2019-04-25T05:51:15.778Z,2.10
2019-04-25T05:52:15.970Z,2.20
2019-04-25T05:53:16.164Z,1.70
2019-04-25T05:54:14.740Z,2.00
2019-04-25T05:55:17.542Z,1.70
2019-04-25T05:56:14.780Z,1.60
2019-04-25T05:57:14.800Z,1.70
2019-04-25T05:58:14.821Z,1.80
2019-04-25T05:59:14.841Z,1.80
2019-04-25T06:00:15.149Z,1.70
2019-04-25T06:01:14.887Z,1.80
2019-04-25T06:02:14.905Z,1.60
2019-04-25T06:03:14.926Z,1.70
2019-04-25T06:04:14.945Z,1.50
2019-04-25T06:05:14.967Z,1.50
2019-04-25T06:06:14.990Z,1.60
2019-04-25T06:07:15.008Z,1.50
2019-04-25T06:08:15.033Z,1.60
2019-04-25T06:09:15.052Z,1.40
2019-04-25T06:10:15.080Z,1.40
2019-04-25T06:11:15.094Z,1.80
2019-04-25T06:12:15.115Z,1.20
2019-04-25T06:13:15.138Z,1.10
2019-04-25T06:14:15.157Z,1.10
2019-04-25T06:15:15.179Z,1.40
2019-04-25T06:16:15.200Z,1.30
2019-04-25T06:17:15.244Z,1.50
2019-04-25T06:18:15.243Z,1.30
2019-04-25T06:19:18.525Z,1.30
2019-04-25T06:20:15.285Z,1.30
2019-04-25T06:21:15.308Z,1.30
2019-04-25T06:22:15.329Z,1.40
2019-04-25T06:23:15.415Z,1.40
2019-04-25T06:24:15.425Z,1.20
2019-04-25T06:25:16.367Z,1.30
2019-04-25T06:26:23.049Z,1.40
2019-04-25T06:27:15.491Z,1.40
2019-04-25T06:28:15.485Z,1.40
2019-04-25T06:29:15.481Z,1.40
2019-04-25T06:30:15.789Z,1.30
2019-04-25T06:31:15.524Z,1.30
2019-04-25T06:32:15.544Z,1.40
2019-04-25T06:33:15.630Z,1.30
2019-04-25T06:34:15.587Z,1.40
2019-04-25T06:35:15.611Z,1.20
2019-04-25T06:36:15.634Z,1.20
2019-04-25T06:37:15.656Z,1.40
2019-04-25T06:38:15.678Z,1.10
2019-04-25T06:39:15.701Z,1.20
2019-04-25T06:40:15.724Z,1.20
2019-04-25T06:41:15.747Z,1.20
2019-04-25T06:42:15.771Z,1.10
2019-04-25T06:43:15.791Z,1.20
2019-04-25T06:44:15.815Z,1.20
2019-04-25T06:45:15.846Z,1.80
2019-04-25T06:46:15.858Z,1.10
2019-04-25T06:47:15.892Z,1.10
2019-04-25T06:48:15.908Z,0.80
2019-04-25T06:49:15.930Z,1.00
2019-04-25T06:50:15.954Z,0.90
2019-04-25T06:51:15.988Z,0.80
2019-04-25T06:52:16.002Z,1.00
2019-04-25T06:53:16.025Z,0.80
2019-04-25T06:54:16.050Z,1.50
2019-04-25T06:55:16.077Z,1.00
2019-04-25T06:56:16.100Z,0.90
2019-04-25T06:57:16.126Z,0.90
2019-04-25T06:58:16.151Z,0.70
2019-04-25T06:59:16.173Z,0.80
2019-04-25T07:00:16.194Z,1.00
2019-04-25T07:01:16.221Z,0.80
2019-04-25T07:02:16.241Z,0.90
2019-04-25T07:03:16.268Z,0.70
2019-04-25T07:04:16.290Z,0.90
2019-04-25T07:05:26.428Z,0.80
2019-04-25T07:06:16.368Z,0.90
2019-04-25T07:07:16.369Z,0.70
2019-04-25T07:08:16.388Z,0.80
2019-04-25T07:09:16.415Z,0.80
2019-04-25T07:10:16.444Z,0.70
2019-04-25T07:11:16.465Z,0.90
2019-04-25T07:12:16.494Z,1.10
2019-04-25T07:13:16.518Z,0.80
2019-04-25T07:14:16.546Z,0.80
2019-04-25T07:15:16.570Z,0.90
2019-04-25T07:16:16.595Z,0.70
2019-04-25T07:17:16.622Z,0.60
2019-04-25T07:18:16.649Z,0.80
2019-04-25T07:19:17.624Z,0.60
2019-04-25T07:20:16.699Z,0.70
2019-04-25T07:21:16.725Z,0.60
2019-04-25T07:22:16.753Z,0.50
2019-04-25T07:23:16.784Z,0.80
2019-04-25T07:24:17.566Z,1.00
2019-04-25T07:25:16.832Z,0.80
2019-04-25T07:26:16.862Z,0.70
2019-04-25T07:27:16.887Z,2.00
2019-04-25T07:28:24.118Z,0.90
2019-04-25T07:29:16.940Z,1.10
2019-04-25T07:30:26.862Z,0.60
2019-04-25T07:31:16.994Z,0.50
2019-04-25T07:32:17.021Z,0.60
2019-04-25T07:33:17.048Z,0.60
2019-04-25T07:34:17.075Z,1.10
2019-04-25T07:35:17.101Z,1.00
2019-04-25T07:36:17.131Z,0.70
2019-04-25T07:37:17.157Z,0.50
2019-04-25T07:38:17.184Z,0.60
2019-04-25T07:39:17.231Z,0.70
2019-04-25T07:40:17.244Z,0.70
2019-04-25T07:41:17.351Z,0.80
2019-04-25T07:42:17.337Z,0.80
2019-04-25T07:43:17.377Z,0.60
2019-04-25T07:44:17.519Z,0.80
2019-04-25T07:45:17.430Z,0.60
2019-04-25T07:46:17.406Z,0.60
2019-04-25T07:47:17.434Z,0.80
2019-04-25T07:48:17.469Z,0.70
2019-04-25T07:49:17.491Z,0.90
2019-04-25T07:50:17.518Z,1.80
2019-04-25T07:51:17.547Z,3.00
2019-04-25T07:52:17.575Z,2.00
2019-04-25T07:53:17.605Z,1.10
2019-04-25T07:54:17.635Z,1.50
2019-04-25T07:55:17.661Z,1.80
2019-04-25T07:56:17.690Z,1.00
2019-04-25T07:57:17.718Z,0.90
2019-04-25T07:58:17.749Z,0.80
2019-04-25T07:59:17.776Z,0.80
2019-04-25T08:00:17.805Z,0.90
2019-04-25T08:01:17.835Z,1.10
2019-04-25T08:02:17.864Z,0.90
2019-04-25T08:03:17.960Z,1.00
2019-04-25T08:04:17.922Z,0.80
2019-04-25T08:05:17.950Z,1.00
2019-04-25T08:06:17.982Z,0.90
2019-04-25T08:07:18.009Z,0.90
2019-04-25T08:08:18.039Z,1.00
2019-04-25T08:09:18.067Z,0.80
2019-04-25T08:10:18.100Z,0.80
2019-04-25T08:11:18.126Z,1.00
2019-04-25T08:12:18.152Z,1.00
2019-04-25T08:13:18.179Z,0.80
2019-04-25T08:14:18.206Z,1.00
2019-04-25T08:15:18.245Z,1.00
2019-04-25T08:16:18.261Z,1.00
2019-04-25T08:17:18.289Z,0.80
2019-04-25T08:18:18.315Z,0.90
2019-04-25T08:19:18.340Z,1.30
2019-04-25T08:20:18.368Z,1.10
2019-04-25T08:21:18.395Z,1.20
2019-04-25T08:22:18.422Z,1.00
2019-04-25T08:23:18.446Z,1.20
2019-04-25T08:24:18.471Z,1.10
2019-04-25T08:25:18.499Z,1.20
2019-04-25T08:26:18.523Z,1.30
2019-04-25T08:28:18.573Z,1.00
2019-04-25T08:29:18.599Z,1.40
2019-04-25T08:30:18.628Z,1.70
2019-04-25T08:31:18.652Z,1.50
2019-04-25T08:32:18.677Z,1.20
2019-04-25T08:33:18.697Z,1.10
2019-04-25T08:34:18.722Z,1.60
2019-04-25T08:35:18.744Z,1.20
2019-04-25T08:36:18.771Z,1.10
2019-04-25T08:37:21.050Z,1.20
2019-04-25T08:38:18.820Z,1.10
2019-04-25T08:39:18.846Z,1.20
2019-04-25T08:40:18.869Z,1.20
2019-04-25T08:41:21.476Z,1.30
2019-04-25T08:42:18.915Z,1.50
2019-04-25T08:43:18.940Z,1.30
2019-04-25T08:44:18.963Z,1.50
2019-04-25T08:45:18.989Z,1.50
2019-04-25T08:46:19.013Z,1.40
2019-04-25T08:47:19.038Z,3.30
2019-04-25T08:48:19.061Z,3.10
2019-04-25T08:49:19.083Z,6.70
2019-04-25T08:50:28.775Z,3.60
2019-04-25T08:51:19.129Z,1.90
2019-04-25T08:52:19.169Z,1.40
2019-04-25T08:53:19.240Z,1.40
2019-04-25T08:54:19.239Z,1.70
2019-04-25T08:55:19.295Z,1.30
2019-04-25T08:56:19.302Z,1.50
2019-04-25T08:57:19.297Z,1.40
2019-04-25T08:58:19.313Z,1.30
2019-04-25T08:59:26.843Z,1.30
2019-04-25T09:00:19.341Z,1.50
2019-04-25T09:01:19.367Z,1.30
2019-04-25T09:02:19.385Z,1.50
2019-04-25T09:03:19.410Z,1.10
2019-04-25T09:04:19.438Z,1.40
2019-04-25T09:05:19.459Z,1.20
2019-04-25T09:06:19.483Z,1.10
2019-04-25T09:07:19.504Z,2.10
2019-04-25T09:08:19.526Z,1.20
2019-04-25T09:09:19.552Z,2.00
2019-04-25T09:10:19.573Z,2.30
2019-04-25T09:11:19.598Z,1.70
2019-04-25T09:12:19.621Z,1.20
2019-04-25T09:13:19.642Z,1.10
2019-04-25T09:14:19.666Z,1.30
2019-04-25T09:15:19.690Z,1.20
2019-04-25T09:16:19.711Z,1.10
2019-04-25T09:17:19.733Z,1.20
2019-04-25T09:18:19.759Z,1.00
2019-04-25T09:19:19.783Z,1.00
2019-04-25T09:20:19.804Z,0.90
2019-04-25T09:21:19.830Z,1.00
2019-04-25T09:22:19.851Z,1.00
2019-04-25T09:23:19.876Z,1.00
2019-04-25T09:24:19.899Z,1.00
2019-04-25T09:25:19.925Z,0.90
2019-04-25T09:26:19.945Z,1.10
2019-04-25T09:27:19.970Z,1.00
2019-04-25T09:28:19.992Z,1.50
2019-04-25T09:29:20.136Z,0.90
2019-04-25T09:30:20.040Z,0.80
2019-04-25T09:31:20.064Z,4.40
2019-04-25T09:32:20.095Z,1.70
2019-04-25T09:33:20.109Z,1.30
2019-04-25T09:34:20.133Z,2.30
2019-04-25T09:35:20.262Z,0.80
2019-04-25T09:36:20.180Z,1.90
2019-04-25T09:37:20.209Z,1.30
2019-04-25T09:38:20.235Z,1.50
2019-04-25T09:39:20.255Z,1.30
2019-04-25T09:40:20.276Z,0.70
2019-04-25T09:41:20.304Z,1.80
2019-04-25T09:42:20.325Z,1.00
2019-04-25T09:43:20.350Z,0.80
2019-04-25T09:44:20.373Z,1.30
2019-04-25T09:45:20.399Z,0.70
2019-04-25T09:46:20.422Z,0.80
2019-04-25T09:47:20.447Z,0.80
2019-04-25T09:48:20.471Z,0.70
2019-04-25T09:49:20.495Z,0.70
2019-04-25T09:50:20.521Z,0.70
2019-04-25T09:51:20.544Z,0.80
2019-04-25T09:52:20.570Z,0.90
2019-04-25T09:53:23.560Z,0.80
2019-04-25T09:54:20.615Z,0.70
2019-04-25T09:55:20.640Z,0.70
2019-04-25T09:56:20.665Z,0.70
2019-04-25T09:57:20.689Z,0.70
2019-04-25T09:58:20.713Z,0.60
2019-04-25T09:59:27.198Z,0.90
2019-04-25T10:00:20.763Z,0.60
2019-04-25T10:01:20.789Z,0.60
2019-04-25T10:02:20.810Z,0.80
2019-04-25T10:03:20.836Z,1.30
2019-04-25T10:04:22.877Z,0.70
2019-04-25T10:05:20.886Z,0.90
2019-04-25T10:06:20.912Z,1.10
2019-04-25T10:07:20.937Z,2.80
2019-04-25T10:08:20.960Z,1.20
2019-04-25T10:09:20.988Z,1.70
2019-04-25T10:10:21.015Z,0.90
2019-04-25T10:11:21.040Z,0.80
2019-04-25T10:12:21.147Z,0.70
2019-04-25T10:13:21.146Z,0.70
2019-04-25T10:14:21.141Z,0.70
2019-04-25T10:15:21.210Z,0.40
2019-04-25T10:16:21.220Z,0.60
2019-04-25T10:17:21.204Z,0.70
2019-04-25T10:18:21.239Z,0.80
2019-04-25T10:19:21.261Z,0.60
2019-04-25T10:20:21.293Z,0.60
2019-04-25T10:21:21.313Z,0.70
2019-04-25T10:22:21.342Z,0.60
2019-04-25T10:23:21.370Z,0.70
2019-04-25T10:24:21.399Z,0.60
2019-04-25T10:25:21.428Z,0.60
2019-04-25T10:26:21.459Z,0.60
2019-04-25T10:27:21.490Z,0.60
2019-04-25T10:28:23.215Z,0.70
2019-04-25T10:29:21.553Z,0.60
2019-04-25T10:30:23.783Z,0.70
2019-04-25T10:31:21.617Z,0.60
2019-04-25T10:32:23.646Z,0.70
2019-04-25T10:33:21.682Z,0.50
2019-04-25T10:34:21.713Z,0.70
2019-04-25T10:35:21.748Z,0.70
2019-04-25T10:36:23.256Z,0.80
2019-04-25T10:37:21.816Z,1.60
2019-04-25T10:38:21.848Z,0.70
2019-04-25T10:39:21.953Z,1.10
2019-04-25T10:40:23.417Z,0.70
2019-04-25T10:41:21.957Z,0.70
2019-04-25T10:42:23.752Z,0.50
2019-04-25T10:43:23.874Z,1.00
2019-04-25T10:44:22.063Z,0.70
2019-04-25T10:45:25.458Z,0.50
2019-04-25T10:46:22.137Z,0.70
2019-04-25T10:47:22.175Z,0.60
2019-04-25T10:48:23.926Z,0.80
2019-04-25T10:49:23.543Z,0.60
2019-04-25T10:50:23.721Z,0.50
2019-04-25T10:51:23.864Z,0.60
2019-04-25T10:52:23.335Z,0.70
2019-04-25T10:53:23.468Z,1.20
2019-04-25T10:54:22.436Z,0.80
2019-04-25T10:55:23.371Z,1.30
2019-04-25T10:56:24.164Z,1.20
2019-04-25T10:57:22.553Z,1.40
2019-04-25T10:58:22.592Z,1.80
2019-04-25T10:59:23.619Z,0.80
2019-04-25T11:00:24.051Z,0.60
2019-04-25T11:01:24.337Z,0.60
2019-04-25T11:02:23.607Z,0.50
2019-04-25T11:03:24.171Z,0.80
2019-04-25T11:04:22.825Z,0.60
2019-04-25T11:05:23.958Z,0.70
2019-04-25T11:06:23.307Z,0.70
2019-04-25T11:07:23.467Z,0.70
2019-04-25T11:08:24.374Z,0.40
2019-04-25T11:09:24.178Z,0.60
2019-04-25T11:10:23.595Z,0.60
2019-04-25T11:11:24.106Z,0.80
2019-04-25T11:12:23.500Z,0.30
2019-04-25T11:13:23.183Z,0.70
2019-04-25T11:14:23.895Z,0.70
2019-04-25T11:15:23.445Z,0.60
2019-04-25T11:16:24.214Z,0.50
2019-04-25T11:17:24.245Z,0.50
2019-04-25T11:18:23.887Z,0.50
2019-04-25T11:19:23.900Z,0.50
2019-04-25T11:20:23.466Z,0.60
2019-04-25T11:21:24.287Z,0.50
2019-04-25T11:22:23.975Z,0.60
2019-04-25T11:23:23.590Z,0.50
2019-04-25T11:24:23.829Z,0.50
2019-04-25T11:25:24.034Z,0.50
2019-04-25T11:26:23.711Z,0.40
2019-04-25T11:27:23.970Z,0.50
2019-04-25T11:28:23.793Z,0.70
2019-04-25T11:29:24.076Z,1.40
2019-04-25T11:30:23.876Z,0.70
2019-04-25T11:31:23.918Z,1.00
2019-04-25T11:32:23.964Z,1.70
2019-04-25T11:33:24.684Z,3.50
2019-04-25T11:34:24.043Z,0.60
2019-04-25T11:35:24.225Z,0.80
2019-04-25T11:36:24.975Z,0.60
2019-04-25T11:37:24.164Z,1.00
2019-04-25T11:38:24.208Z,0.60
2019-04-25T11:39:24.250Z,0.70
2019-04-25T11:40:24.291Z,0.80
2019-04-25T11:41:24.379Z,0.50
2019-04-25T11:42:24.372Z,0.60
2019-04-25T11:43:24.415Z,0.40
2019-04-25T11:44:24.592Z,0.50
2019-04-25T11:45:24.499Z,0.50
2019-04-25T11:46:24.539Z,0.30
2019-04-25T11:47:24.581Z,0.30
2019-04-25T11:48:24.629Z,0.60
2019-04-25T11:49:24.678Z,0.90
2019-04-25T11:50:24.708Z,0.50
2019-04-25T11:51:24.751Z,0.50
2019-04-25T11:52:28.121Z,0.50
2019-04-25T11:53:25.008Z,0.80
2019-04-25T11:54:24.875Z,0.40
2019-04-25T11:55:24.923Z,0.50
2019-04-25T11:56:25.015Z,0.40
2019-04-25T11:57:25.029Z,0.30
2019-04-25T11:58:25.104Z,0.30
2019-04-25T11:59:25.086Z,0.40
2019-04-25T12:00:25.127Z,0.50
2019-04-25T12:01:25.169Z,0.70
2019-04-25T12:02:25.211Z,0.50
2019-04-25T12:03:25.255Z,0.40
2019-04-25T12:04:25.296Z,0.80
2019-04-25T12:05:25.337Z,0.50
2019-04-25T12:06:25.379Z,0.60
2019-04-25T12:07:25.423Z,0.40
2019-04-25T12:08:25.460Z,0.80
2019-04-25T12:09:25.503Z,0.40
2019-04-25T12:10:25.547Z,0.50
2019-04-25T12:11:25.587Z,0.50
2019-04-25T12:12:25.629Z,0.50
2019-04-25T12:13:25.673Z,0.50
2019-04-25T12:14:25.715Z,0.40
2019-04-25T12:15:25.754Z,0.60
2019-04-25T12:16:25.797Z,0.70
2019-04-25T12:17:25.836Z,0.40
2019-04-25T12:18:25.879Z,0.50
2019-04-25T12:19:35.010Z,0.60
2019-04-25T12:20:25.961Z,0.50
2019-04-25T12:21:26.004Z,0.50
2019-04-25T12:22:26.057Z,0.40
2019-04-25T12:23:26.088Z,0.40
2019-04-25T12:24:26.130Z,0.60
2019-04-25T12:25:26.172Z,0.50
2019-04-25T12:26:26.411Z,0.50
2019-04-25T12:27:26.253Z,0.50
2019-04-25T12:28:26.295Z,0.40
2019-04-25T12:29:26.344Z,0.40
2019-04-25T12:30:37.255Z,0.40
2019-04-25T12:31:26.419Z,0.40
2019-04-25T12:32:26.465Z,0.30
2019-04-25T12:33:26.505Z,0.50
2019-04-25T12:34:26.546Z,0.80
2019-04-25T12:35:26.585Z,0.60
2019-04-25T12:36:26.626Z,0.50
2019-04-25T12:37:26.691Z,0.50
2019-04-25T12:38:26.709Z,0.70
2019-04-25T12:39:26.751Z,0.60
2019-04-25T12:40:26.791Z,0.40
2019-04-25T12:41:26.833Z,0.40
2019-04-25T12:42:26.959Z,0.40
2019-04-25T12:43:26.957Z,0.50
2019-04-25T12:44:27.025Z,0.50
2019-04-25T12:45:27.026Z,0.80
2019-04-25T12:46:27.042Z,0.80
2019-04-25T12:47:27.082Z,0.40
2019-04-25T12:48:27.124Z,0.50
2019-04-25T12:49:27.163Z,0.40
2019-04-25T12:50:27.210Z,0.40
2019-04-25T12:51:27.248Z,0.40
2019-04-25T12:52:27.288Z,0.40
2019-04-25T12:53:27.331Z,0.40
2019-04-25T12:54:27.371Z,0.40
2019-04-25T12:55:27.412Z,0.50
2019-04-25T12:56:27.452Z,0.50
2019-04-25T12:57:27.495Z,0.30
2019-04-25T12:58:27.535Z,0.50
2019-04-25T12:59:27.578Z,0.40
2019-04-25T13:00:27.619Z,0.30
2019-04-25T13:01:27.661Z,0.70
2019-04-25T13:02:27.702Z,0.50
2019-04-25T13:03:27.743Z,0.50
2019-04-25T13:04:27.786Z,0.60
2019-04-25T13:05:27.828Z,0.40
2019-04-25T13:06:27.868Z,0.50
2019-04-25T13:07:27.906Z,0.50
2019-04-25T13:08:27.949Z,0.40
2019-04-25T13:09:27.986Z,0.40
2019-04-25T13:10:28.030Z,0.50
2019-04-25T13:11:28.075Z,0.50